Time,TemperatureF,DewpointF,PressureIn,WindDirection,WindDirectionDegrees,WindSpeedMPH,WindSpeedGustMPH,Humidity,HourlyPrecipIn,Conditions,Clouds,dailyrainin,SoftwareType,DateUTC
2013-06-23 00:02:00,51.0,44.0,-100.00,South,189,3.0,5.0,78,0.00,,,0.22,,2013-06-23 06:02:00,
2013-06-23 00:12:00,51.0,44.0,-100.00,South,189,3.0,5.0,78,0.00,,,0.22,,2013-06-23 06:12:00,
2013-06-23 00:43:00,47.0,43.0,-100.00,WSW,257,4.0,7.0,86,0.00,,,0.22,,2013-06-23 06:43:00,
2013-06-23 00:52:00,47.0,43.0,-100.00,WSW,257,4.0,7.0,86,0.00,,,0.22,,2013-06-23 06:52:00,
2013-06-23 01:02:00,47.0,43.0,-100.00,WSW,257,4.0,7.0,86,0.00,,,0.22,,2013-06-23 07:02:00,
2013-06-23 01:12:00,47.0,43.0,-100.00,WSW,257,4.0,7.0,86,0.00,,,0.22,,2013-06-23 07:12:00,
2013-06-23 01:43:00,42.0,40.0,-100.00,South,181,2.0,4.0,93,0.00,,,0.22,,2013-06-23 07:43:00,
2013-06-23 01:53:00,42.0,40.0,-100.00,South,181,2.0,4.0,93,0.00,,,0.22,,2013-06-23 07:53:00,
2013-06-23 02:02:00,42.0,40.0,-100.00,South,181,2.0,4.0,93,0.00,,,0.22,,2013-06-23 08:02:00,
2013-06-23 02:11:00,42.0,40.0,-100.00,South,181,2.0,4.0,93,0.00,,,0.22,,2013-06-23 08:11:00,
2013-06-23 02:42:00,40.0,38.0,-100.00,SW,224,5.0,7.0,92,0.01,,,0.23,,2013-06-23 08:42:00,
2013-06-23 02:53:00,40.0,38.0,-100.00,SW,224,5.0,7.0,92,0.01,,,0.23,,2013-06-23 08:53:00,
2013-06-23 03:02:00,40.0,38.0,-100.00,SW,224,5.0,7.0,92,0.01,,,0.23,,2013-06-23 09:02:00,
2013-06-23 03:12:00,40.0,38.0,-100.00,SW,224,5.0,7.0,92,0.01,,,0.23,,2013-06-23 09:12:00,
2013-06-23 03:43:00,40.0,38.0,-100.00,South,185,5.0,9.0,90,0.00,,,0.23,,2013-06-23 09:43:00,
2013-06-23 03:54:00,40.0,38.0,-100.00,South,185,5.0,9.0,90,0.00,,,0.23,,2013-06-23 09:54:00,
2013-06-23 04:02:00,40.0,38.0,-100.00,South,185,5.0,9.0,90,0.00,,,0.23,,2013-06-23 10:02:00,
2013-06-23 04:11:00,40.0,38.0,-100.00,South,185,5.0,9.0,90,0.00,,,0.23,,2013-06-23 10:11:00,
2013-06-23 04:43:00,37.0,36.0,-100.00,SSW,197,5.0,9.0,95,0.00,,,0.23,,2013-06-23 10:43:00,
2013-06-23 04:53:00,37.0,36.0,-100.00,SSW,197,5.0,9.0,95,0.00,,,0.23,,2013-06-23 10:53:00,
2013-06-23 05:01:00,37.0,36.0,-100.00,SSW,197,5.0,9.0,95,0.00,,,0.23,,2013-06-23 11:01:00,
2013-06-23 05:11:00,37.0,36.0,-100.00,SSW,197,5.0,9.0,95,0.00,,,0.23,,2013-06-23 11:11:00,
2013-06-23 05:43:00,38.0,36.0,-100.00,WSW,244,2.0,4.0,92,-99.99,,,0.22,,2013-06-23 11:43:00,
2013-06-23 05:53:00,38.0,36.0,-100.00,WSW,244,2.0,4.0,92,-99.99,,,0.22,,2013-06-23 11:53:00,
2013-06-23 06:01:00,38.0,36.0,-100.00,WSW,244,2.0,4.0,92,-99.99,,,0.22,,2013-06-23 12:01:00,
2013-06-23 06:11:00,38.0,36.0,-100.00,WSW,244,2.0,4.0,92,-99.99,,,0.22,,2013-06-23 12:11:00,
2013-06-23 06:53:00,38.0,36.0,-100.00,North,5,2.0,4.0,91,0.01,,,0.18,,2013-06-23 12:53:00,
2013-06-23 07:01:00,38.0,36.0,-100.00,North,5,2.0,4.0,91,0.01,,,0.18,,2013-06-23 13:01:00,
2013-06-23 07:11:00,38.0,36.0,-100.00,North,5,2.0,4.0,91,0.01,,,0.18,,2013-06-23 13:11:00,
2013-06-23 07:43:00,42.0,37.0,-100.00,SE,137,4.0,7.0,81,0.00,,,0.08,,2013-06-23 13:43:00,
2013-06-23 07:54:00,42.0,37.0,-100.00,SE,137,4.0,7.0,81,0.00,,,0.08,,2013-06-23 13:54:00,
2013-06-23 08:04:00,42.0,37.0,-100.00,SE,137,4.0,7.0,81,0.00,,,0.08,,2013-06-23 14:04:00,
2013-06-23 08:11:00,42.0,37.0,-100.00,SE,137,4.0,7.0,81,0.00,,,0.08,,2013-06-23 14:11:00,
2013-06-23 08:44:00,48.0,38.0,-100.00,SW,224,3.0,6.0,68,0.00,,,0.06,,2013-06-23 14:44:00,
2013-06-23 08:52:00,48.0,38.0,-100.00,SW,224,3.0,6.0,68,0.00,,,0.06,,2013-06-23 14:52:00,
2013-06-23 09:05:00,48.0,38.0,-100.00,SW,224,3.0,6.0,68,0.00,,,0.06,,2013-06-23 15:05:00,
2013-06-23 09:11:00,48.0,38.0,-100.00,SW,224,3.0,6.0,68,0.00,,,0.06,,2013-06-23 15:11:00,
2013-06-23 09:43:00,53.0,41.0,-100.00,South,185,2.0,4.0,62,-99.99,,,0.02,,2013-06-23 15:43:00,
2013-06-23 09:53:00,53.0,41.0,-100.00,South,185,2.0,4.0,62,-99.99,,,0.02,,2013-06-23 15:53:00,
2013-06-23 10:05:00,53.0,41.0,-100.00,South,185,2.0,4.0,62,-99.99,,,0.02,,2013-06-23 16:05:00,
2013-06-23 10:11:00,53.0,41.0,-100.00,South,185,2.0,4.0,62,-99.99,,,0.02,,2013-06-23 16:11:00,
2013-06-23 10:42:00,57.0,41.0,-100.00,NW,322,3.0,5.0,56,0.00,,,0.00,,2013-06-23 16:42:00,
2013-06-23 10:53:00,57.0,41.0,-100.00,NW,322,3.0,5.0,56,0.00,,,0.00,,2013-06-23 16:53:00,
2013-06-23 11:03:00,57.0,41.0,-100.00,NW,322,3.0,5.0,56,0.00,,,0.00,,2013-06-23 17:03:00,
2013-06-23 11:11:00,57.0,41.0,-100.00,NW,322,3.0,5.0,56,0.00,,,0.00,,2013-06-23 17:11:00,
2013-06-23 11:43:00,60.0,39.0,-100.00,West,280,2.0,5.0,46,0.00,,,-99.99,,2013-06-23 17:43:00,
2013-06-23 11:53:00,60.0,39.0,-100.00,West,280,2.0,5.0,46,0.00,,,-99.99,,2013-06-23 17:53:00,
2013-06-23 12:01:00,60.0,39.0,-100.00,West,280,2.0,5.0,46,0.00,,,-99.99,,2013-06-23 18:01:00,
2013-06-23 12:11:00,60.0,39.0,-100.00,West,280,2.0,5.0,46,0.00,,,-99.99,,2013-06-23 18:11:00,
2013-06-23 12:42:00,64.0,41.0,-100.00,North,11,3.0,10.0,43,0.00,,,-99.99,,2013-06-23 18:42:00,
2013-06-23 12:53:00,64.0,41.0,-100.00,North,11,3.0,10.0,43,0.00,,,-99.99,,2013-06-23 18:53:00,
2013-06-23 13:01:00,64.0,41.0,-100.00,North,11,3.0,10.0,43,0.00,,,-99.99,,2013-06-23 19:01:00,
2013-06-23 13:11:00,64.0,41.0,-100.00,North,11,3.0,10.0,43,0.00,,,-99.99,,2013-06-23 19:11:00,
2013-06-23 13:43:00,65.0,40.0,-100.00,NNE,33,4.0,9.0,39,0.00,,,-99.99,,2013-06-23 19:43:00,
2013-06-23 13:53:00,65.0,40.0,-100.00,NNE,33,4.0,9.0,39,0.00,,,-99.99,,2013-06-23 19:53:00,
2013-06-23 14:01:00,65.0,40.0,-100.00,NNE,33,4.0,9.0,39,0.00,,,-99.99,,2013-06-23 20:01:00,
2013-06-23 14:11:00,65.0,40.0,-100.00,NNE,33,4.0,9.0,39,0.00,,,-99.99,,2013-06-23 20:11:00,
2013-06-23 14:42:00,68.0,38.0,-100.00,SSE,153,3.0,7.0,33,0.00,,,0.00,,2013-06-23 20:42:00,
2013-06-23 14:53:00,68.0,38.0,-100.00,SSE,153,3.0,7.0,33,0.00,,,0.00,,2013-06-23 20:53:00,
2013-06-23 15:01:00,68.0,38.0,-100.00,SSE,153,3.0,7.0,33,0.00,,,0.00,,2013-06-23 21:01:00,
2013-06-23 15:11:00,68.0,38.0,-100.00,SSE,153,3.0,7.0,33,0.00,,,0.00,,2013-06-23 21:11:00,
2013-06-23 16:43:00,71.0,41.0,-100.00,NNE,18,9.0,15.0,34,0.00,,,0.00,,2013-06-23 22:43:00,
2013-06-23 16:53:00,71.0,41.0,-100.00,NNE,18,9.0,15.0,34,0.00,,,0.00,,2013-06-23 22:53:00,
2013-06-23 17:01:00,71.0,41.0,-100.00,NNE,18,9.0,15.0,34,0.00,,,0.00,,2013-06-23 23:01:00,
2013-06-23 17:11:00,71.0,41.0,-100.00,NNE,18,9.0,15.0,34,0.00,,,0.00,,2013-06-23 23:11:00,
2013-06-23 17:44:00,70.0,41.0,-100.00,NNE,19,7.0,13.0,34,0.00,,,0.00,,2013-06-23 23:44:00,
2013-06-23 17:52:00,70.0,41.0,-100.00,NNE,19,7.0,13.0,34,0.00,,,0.00,,2013-06-23 23:52:00,
2013-06-23 18:01:00,70.0,41.0,-100.00,NNE,19,7.0,13.0,34,0.00,,,0.00,,2013-06-24 00:01:00,
2013-06-23 18:11:00,70.0,41.0,-100.00,NNE,19,7.0,13.0,34,0.00,,,0.00,,2013-06-24 00:11:00,
2013-06-23 18:42:00,70.0,40.0,-100.00,NE,36,6.0,10.0,33,0.00,,,0.00,,2013-06-24 00:42:00,
2013-06-23 18:52:00,70.0,40.0,-100.00,NE,36,6.0,10.0,33,0.00,,,0.00,,2013-06-24 00:52:00,
2013-06-23 19:01:00,70.0,40.0,-100.00,NE,36,6.0,10.0,33,0.00,,,0.00,,2013-06-24 01:01:00,
2013-06-23 19:11:00,70.0,40.0,-100.00,NE,36,6.0,10.0,33,0.00,,,0.00,,2013-06-24 01:11:00,
2013-06-23 19:42:00,69.0,41.0,-100.00,North,6,6.0,9.0,36,0.00,,,0.00,,2013-06-24 01:42:00,
2013-06-23 19:53:00,69.0,41.0,-100.00,North,6,6.0,9.0,36,0.00,,,0.00,,2013-06-24 01:53:00,
2013-06-23 20:01:00,69.0,41.0,-100.00,North,6,6.0,9.0,36,0.00,,,0.00,,2013-06-24 02:01:00,
2013-06-23 20:11:00,69.0,41.0,-100.00,North,6,6.0,9.0,36,0.00,,,0.00,,2013-06-24 02:11:00,
2013-06-23 20:42:00,67.0,42.0,-100.00,NNW,342,5.0,7.0,40,0.00,,,0.00,,2013-06-24 02:42:00,
2013-06-23 20:53:00,67.0,42.0,-100.00,NNW,342,5.0,7.0,40,0.00,,,0.00,,2013-06-24 02:53:00,
2013-06-23 21:01:00,67.0,42.0,-100.00,NNW,342,5.0,7.0,40,0.00,,,0.00,,2013-06-24 03:01:00,
2013-06-23 21:11:00,67.0,42.0,-100.00,NNW,342,5.0,7.0,40,0.00,,,0.00,,2013-06-24 03:11:00,
2013-06-23 21:43:00,64.0,48.0,-100.00,NW,317,4.0,5.0,56,0.00,,,0.00,,2013-06-24 03:43:00,
2013-06-23 21:53:00,64.0,48.0,-100.00,NW,317,4.0,5.0,56,0.00,,,0.00,,2013-06-24 03:53:00,
2013-06-23 22:01:00,64.0,48.0,-100.00,NW,317,4.0,5.0,56,0.00,,,0.00,,2013-06-24 04:01:00,
2013-06-23 22:11:00,64.0,48.0,-100.00,NW,317,4.0,5.0,56,0.00,,,0.00,,2013-06-24 04:11:00,
2013-06-23 22:43:00,60.0,46.0,-100.00,NW,306,5.0,9.0,60,0.00,,,0.00,,2013-06-24 04:43:00,
2013-06-23 22:53:00,60.0,46.0,-100.00,NW,306,5.0,9.0,60,0.00,,,0.00,,2013-06-24 04:53:00,
2013-06-23 23:02:00,60.0,46.0,-100.00,NW,306,5.0,9.0,60,0.00,,,0.00,,2013-06-24 05:02:00,
2013-06-23 23:12:00,60.0,46.0,-100.00,NW,306,5.0,9.0,60,0.00,,,0.00,,2013-06-24 05:12:00,
2013-06-23 23:44:00,59.0,45.0,-100.00,NNW,329,5.0,7.0,60,0.00,,,0.00,,2013-06-24 05:44:00,
2013-06-23 23:55:00,59.0,45.0,-100.00,NNW,329,5.0,7.0,60,0.00,,,0.00,,2013-06-24 05:55:00,